Nearby METAR Reports

 

K9MN - St Mary Hospital, Minnesota, USA
Distance from station: SW 3mi, 4km
Updated: 05/17/2022 11:59am
Mostly cloudy
Mostly cloudy
 Wind from ESE
Wind: ESE 6 mph , 9 km/h
Temperature: 59°F , 15°C
Dew Point: 41°F , 5°C
Humidity: 51%
Barometer: 30.05 inHg , 1017.6 hPa
Clouds: Mostly cloudy
Visibility: 10 miles , 16 km
Cloud details: Mostly cloudy 6500 ft
2022/05/17 16:59 K9MN 171659Z AUTO 12005KT 10SM BKN065 15/05 A3005 RMK AO1
KRST - Rochester, Minnesota, USA
Distance from station: SSW 10mi, 16km
Updated: 05/17/2022 11:54am
Clear
Clear
 Wind from SSE
Wind: SSE 7 mph , 11 km/h
Temperature: 61°F , 16°C
Dew Point: 45°F , 7°C
Humidity: 55%
Barometer: 30.06 inHg , 1017.9 hPa
Clouds: Clear
Visibility: 10 miles , 16 km
2022/05/17 16:54 KRST 171654Z 15006KT 10SM CLR 16/07 A3006 RMK AO2 RAB26E34 SLP179 P0000 T01560072
 
KTOB - Dodge Center, Minnesota, USA
Distance from station: W 19mi, 30km
Updated: 05/17/2022 11:55am

 Wind from S
Wind: S 8 mph , 13 km/h
Temperature: 61°F , 16°C
Dew Point: 41°F , 5°C
Humidity: 48%
Barometer: 30.04 inHg , 1017.3 hPa
Visibility: 10 miles , 16 km
2022/05/17 16:55 KTOB 171655Z AUTO 17007KT 10SM 16/05 A3004 RMK AO2 LTG DSNT W
KFKA - Preston, Minnesota, USA
Distance from station: SSE 28mi, 45km
Updated: 05/17/2022 11:55am
Clear
Clear
 Wind from S
Wind: S 6 mph , 9 km/h
Temperature: 57°F , 14°C
Dew Point: 48°F , 9°C
Humidity: 72%
Barometer: 30.06 inHg , 1017.9 hPa
Clouds: Clear
Visibility: 10 miles , 16 km
2022/05/17 16:55 KFKA 171655Z AUTO 17005KT 10SM CLR 14/09 A3006 RMK AO2 LTG DSNT W T01420092
 
KAUM - Austin Muni, Minnesota, USA
Distance from station: SW 35mi, 57km
Updated: 05/17/2022 11:55am
Light rain, Clear
Light rain, Clear
 Wind from SSE
Wind: SSE 5 mph , 7 km/h
Temperature: 55°F , 13°C
Dew Point: 52°F , 11°C
Humidity: 88%
Barometer: 30.04 inHg , 1017.3 hPa
Summary: Light rain
Clouds: Clear
Visibility: 10 miles , 16 km
2022/05/17 16:55 KAUM 171655Z AUTO 16004KT 10SM -RA CLR 13/11 A3004 RMK AO2 LTG DSNT SW P0002
KONA - Winona Muni, Minnesota, USA
Distance from station: E 37mi, 59km
Updated: 05/17/2022 11:55am
Clear
Clear
 Wind from ESE
Wind: ESE 5 mph , 7 km/h
Temperature: 63°F , 17°C
Dew Point: 46°F , 8°C
Humidity: 56%
Barometer: 30.04 inHg , 1017.3 hPa
Clouds: Clear
Visibility: 10 miles , 16 km
2022/05/17 16:55 KONA 171655Z AUTO 11004KT 10SM CLR 17/08 A3004 RMK AO2 LTG DSNT W
 
KRGK - Red Wing, Minnesota, USA
Distance from station: N 38mi, 61km
Updated: 05/17/2022 11:55am
Clear
Clear
 Wind from SE
Wind: SE 6 mph , 9 km/h
Temperature: 66°F , 19°C
Dew Point: 41°F , 5°C
Humidity: 40%
Barometer: 30.02 inHg , 1016.6 hPa
Clouds: Clear
Visibility: 10 miles , 16 km
2022/05/17 16:55 KRGK 171655Z AUTO 14005KT 10SM CLR 19/05 A3002 RMK AO2 LTG DSNT SW
KOWA - Owatonna, Minnesota, USA
Distance from station: W 41mi, 65km
Updated: 05/17/2022 11:53am
Light rain, Clear
Light rain, Clear
 Wind from SSE
Wind: SSE 5 mph , 7 km/h
Temperature: 59°F , 15°C
Dew Point: 46°F , 8°C
Humidity: 63%
Barometer: 30.04 inHg , 1017.3 hPa
Summary: Light rain
Clouds: Clear
Visibility: 10 miles , 16 km
2022/05/17 16:53 KOWA 171653Z AUTO 16004KT 10SM -RA CLR 15/08 A3004 RMK AO2 LTG DSNT SW
 
KSYN - Stanton, Minnesota, USA
Distance from station: NW 42mi, 68km
Updated: 05/17/2022 11:55am
Clear
Clear
 Wind from SE
Wind: SE 6 mph , 9 km/h
Temperature: 64°F , 18°C
Dew Point: 43°F , 6°C
Humidity: 46%
Barometer: 30.02 inHg , 1016.6 hPa
Clouds: Clear
Visibility: 10 miles , 16 km
2022/05/17 16:55 KSYN 171655Z AUTO 14005KT 10SM CLR 18/06 A3002 RMK AO2 LTG DSNT SW T01810063
KFBL - Faribault Muni, Minnesota, USA
Distance from station: WNW 48mi, 77km
Updated: 05/17/2022 11:55am
Partly cloudy
Partly cloudy
 Wind from SSE
Wind: SSE 6 mph , 9 km/h
Temperature: 61°F , 16°C
Dew Point: 46°F , 8°C
Humidity: 59%
Barometer: 30.03 inHg , 1016.9 hPa
Clouds: Partly cloudy
Visibility: 10 miles , 16 km
Cloud details: Partly cloudy 8000 ft
2022/05/17 16:55 KFBL 171655Z AUTO 16005KT 10SM SCT080 16/08 A3003 RMK AO2 LTG DSNT SW